createdAt,value
2022-12-08T00:01:13.209Z,71.00
2022-12-08T00:03:40.494Z,71.00
2022-12-08T00:06:31.674Z,71.10
2022-12-08T00:09:17.119Z,71.20
2022-12-08T00:11:43.857Z,71.10
2022-12-08T00:14:10.819Z,71.20
2022-12-08T00:16:37.595Z,71.10
2022-12-08T00:19:04.379Z,71.10
2022-12-08T00:21:31.166Z,71.10
2022-12-08T00:23:58.029Z,71.10
2022-12-08T00:26:24.839Z,71.10
2022-12-08T00:28:51.642Z,71.00
2022-12-08T00:31:18.534Z,71.00
2022-12-08T00:33:45.483Z,70.80
2022-12-08T00:36:14.335Z,70.80
2022-12-08T00:38:41.959Z,70.90
2022-12-08T00:41:16.566Z,70.80
2022-12-08T00:43:43.569Z,70.80
2022-12-08T00:46:10.858Z,70.90
2022-12-08T00:48:38.043Z,70.60
2022-12-08T00:51:04.915Z,70.60
2022-12-08T00:53:32.395Z,70.70
2022-12-08T00:55:59.252Z,70.70
2022-12-08T00:58:26.022Z,70.70
2022-12-08T01:00:52.880Z,70.70
2022-12-08T01:03:19.909Z,70.30
2022-12-08T01:05:46.746Z,70.40
2022-12-08T01:08:13.626Z,70.40
2022-12-08T01:10:40.559Z,70.60
2022-12-08T01:13:07.399Z,70.50
2022-12-08T01:15:34.207Z,70.70
2022-12-08T01:18:00.965Z,70.50
2022-12-08T01:20:27.905Z,70.40
2022-12-08T01:22:54.664Z,70.40
2022-12-08T01:25:21.445Z,70.40
2022-12-08T01:27:48.435Z,71.10
2022-12-08T01:30:15.290Z,70.30
2022-12-08T01:32:42.034Z,70.40
2022-12-08T01:35:09.185Z,70.30
2022-12-08T01:37:35.942Z,70.20
2022-12-08T01:40:03.345Z,70.30
2022-12-08T01:42:32.345Z,70.20
2022-12-08T01:45:02.638Z,70.20
2022-12-08T01:47:39.781Z,70.20
2022-12-08T01:50:08.713Z,70.10
2022-12-08T01:52:43.591Z,70.20
2022-12-08T01:55:20.526Z,70.00
2022-12-08T01:57:50.033Z,70.10
2022-12-08T02:00:20.605Z,70.00
2022-12-08T02:03:00.517Z,69.90
2022-12-08T02:05:40.038Z,70.10
2022-12-08T02:08:10.641Z,70.10
2022-12-08T02:10:40.568Z,69.90
2022-12-08T02:13:12.487Z,69.70
2022-12-08T02:15:42.333Z,69.90
2022-12-08T02:18:22.045Z,70.00
2022-12-08T02:21:08.916Z,69.80
2022-12-08T02:24:03.436Z,69.60
2022-12-08T02:26:49.398Z,69.60
2022-12-08T02:29:25.811Z,69.50
2022-12-08T02:31:58.487Z,69.30
2022-12-08T02:34:56.180Z,69.30
2022-12-08T02:37:39.508Z,69.20
2022-12-08T02:40:36.367Z,69.20
2022-12-08T02:43:15.164Z,69.00
2022-12-08T02:45:49.034Z,69.40
2022-12-08T02:48:16.139Z,69.20
2022-12-08T02:50:43.253Z,69.30
2022-12-08T02:55:52.571Z,69.20
2022-12-08T02:58:57.778Z,69.20
2022-12-08T03:01:42.825Z,69.10
2022-12-08T03:04:23.307Z,69.20
2022-12-08T03:07:06.715Z,69.30
2022-12-08T03:09:46.842Z,69.30
2022-12-08T03:12:16.642Z,69.30
2022-12-08T03:14:48.456Z,69.50
2022-12-08T03:17:18.519Z,69.70
2022-12-08T03:19:46.740Z,69.90
2022-12-08T03:22:16.942Z,70.00
2022-12-08T03:24:46.510Z,70.00
2022-12-08T03:27:19.187Z,70.00
2022-12-08T03:29:48.242Z,70.00
2022-12-08T03:32:24.018Z,70.70
2022-12-08T03:34:52.107Z,70.00
2022-12-08T03:37:20.412Z,69.70
2022-12-08T03:39:47.301Z,69.60
2022-12-08T03:42:14.098Z,69.70
2022-12-08T03:44:40.904Z,69.70
2022-12-08T03:47:07.648Z,69.60
2022-12-08T03:49:34.477Z,69.80
2022-12-08T03:52:01.243Z,70.00
2022-12-08T03:54:28.030Z,69.90
2022-12-08T03:56:54.871Z,69.80
2022-12-08T03:59:21.662Z,69.70
2022-12-08T04:01:48.435Z,69.70
2022-12-08T04:04:15.280Z,69.70
2022-12-08T04:06:42.133Z,69.60
2022-12-08T04:09:09.550Z,69.40
2022-12-08T04:11:36.381Z,69.60
2022-12-08T04:14:03.238Z,69.60
2022-12-08T04:16:30.225Z,69.70
2022-12-08T04:18:57.088Z,69.70
2022-12-08T04:21:24.042Z,69.70
2022-12-08T04:23:52.923Z,69.80
2022-12-08T04:26:23.025Z,69.80
2022-12-08T04:28:49.855Z,69.80
2022-12-08T04:31:16.830Z,69.60
2022-12-08T04:33:44.559Z,69.70
2022-12-08T04:36:11.474Z,69.80
2022-12-08T04:38:38.991Z,69.90
2022-12-08T04:41:05.879Z,69.90
2022-12-08T04:43:32.989Z,69.90
2022-12-08T04:45:59.791Z,70.00
2022-12-08T04:48:26.887Z,70.00
2022-12-08T04:50:53.696Z,70.10
2022-12-08T04:53:21.279Z,69.70
2022-12-08T04:55:51.301Z,69.90
2022-12-08T04:58:19.508Z,70.00
2022-12-08T05:00:47.386Z,69.90
2022-12-08T05:03:14.909Z,69.90
2022-12-08T05:05:42.870Z,69.90
2022-12-08T05:08:10.797Z,70.00
2022-12-08T05:10:37.895Z,70.00
2022-12-08T05:13:04.720Z,69.90
2022-12-08T05:15:31.496Z,69.60
2022-12-08T05:17:58.334Z,69.70
2022-12-08T05:20:25.126Z,69.60
2022-12-08T05:22:52.008Z,69.60
2022-12-08T05:25:18.892Z,69.60
2022-12-08T05:27:45.804Z,69.30
2022-12-08T05:30:12.800Z,69.40
2022-12-08T05:32:39.744Z,69.30
2022-12-08T05:35:07.128Z,69.40
2022-12-08T05:37:33.957Z,69.10
2022-12-08T05:40:00.891Z,69.30
2022-12-08T05:42:27.864Z,69.30
2022-12-08T05:44:54.889Z,69.10
2022-12-08T05:47:21.683Z,69.20
2022-12-08T05:49:48.558Z,69.20
2022-12-08T05:52:16.924Z,69.20
2022-12-08T05:54:44.037Z,69.20
2022-12-08T05:57:10.795Z,69.20
2022-12-08T05:59:38.379Z,69.20
2022-12-08T06:02:05.336Z,69.30
2022-12-08T06:04:32.360Z,69.30
2022-12-08T06:06:59.147Z,69.20
2022-12-08T06:09:26.003Z,69.20
2022-12-08T06:11:52.849Z,68.90
2022-12-08T06:14:19.798Z,68.70
2022-12-08T06:16:46.726Z,69.00
2022-12-08T06:19:13.878Z,69.10
2022-12-08T06:21:40.696Z,68.90
2022-12-08T06:24:07.746Z,69.00
2022-12-08T06:26:36.090Z,68.80
2022-12-08T06:29:04.898Z,68.70
2022-12-08T06:31:31.915Z,69.00
2022-12-08T06:33:58.997Z,68.90
2022-12-08T06:36:28.219Z,68.70
2022-12-08T06:38:55.873Z,68.90
2022-12-08T06:41:22.801Z,69.00
2022-12-08T06:43:49.741Z,68.80
2022-12-08T06:46:19.518Z,68.80
2022-12-08T06:48:46.944Z,68.90
2022-12-08T06:51:19.670Z,69.00
2022-12-08T06:53:47.296Z,68.90
2022-12-08T06:56:15.857Z,68.90
2022-12-08T06:58:46.064Z,68.90
2022-12-08T07:01:17.601Z,68.60
2022-12-08T07:03:44.692Z,68.50
2022-12-08T07:06:16.926Z,68.40
2022-12-08T07:08:44.017Z,68.50
2022-12-08T07:11:14.203Z,68.40
2022-12-08T07:13:43.690Z,68.40
2022-12-08T07:16:11.861Z,68.30
2022-12-08T07:18:39.435Z,68.20
2022-12-08T07:21:10.988Z,68.20
2022-12-08T07:23:38.153Z,68.10
2022-12-08T07:26:07.800Z,68.00
2022-12-08T07:28:36.954Z,68.20
2022-12-08T07:31:04.939Z,68.00
2022-12-08T07:33:32.838Z,68.10
2022-12-08T07:36:02.082Z,68.20
2022-12-08T07:38:29.393Z,68.20
2022-12-08T07:40:56.356Z,68.10
2022-12-08T07:43:23.542Z,68.10
2022-12-08T07:45:51.095Z,68.10
2022-12-08T07:48:18.234Z,68.10
2022-12-08T07:50:45.943Z,68.00
2022-12-08T07:53:13.425Z,68.00
2022-12-08T07:55:43.932Z,68.20
2022-12-08T07:58:11.593Z,68.00
2022-12-08T08:00:38.823Z,67.90
2022-12-08T08:03:08.327Z,67.90
2022-12-08T08:05:44.362Z,67.90
2022-12-08T08:08:11.514Z,67.90
2022-12-08T08:10:38.464Z,67.90
2022-12-08T08:13:05.443Z,68.10
2022-12-08T08:15:32.607Z,68.00
2022-12-08T08:17:59.646Z,68.00
2022-12-08T08:20:26.670Z,67.90
2022-12-08T08:22:53.649Z,67.90
2022-12-08T08:25:24.617Z,67.60
2022-12-08T08:27:51.559Z,67.70
2022-12-08T08:30:21.000Z,67.70
2022-12-08T08:32:49.785Z,67.90
2022-12-08T08:35:17.007Z,67.90
2022-12-08T08:37:48.560Z,67.70
2022-12-08T08:40:15.924Z,67.80
2022-12-08T08:42:42.730Z,67.60
2022-12-08T08:45:10.210Z,67.60
2022-12-08T08:47:37.038Z,67.60
2022-12-08T08:50:05.026Z,67.60
2022-12-08T08:52:32.284Z,67.60
2022-12-08T08:54:59.209Z,67.60
2022-12-08T08:57:26.401Z,67.70
2022-12-08T08:59:53.869Z,67.60
2022-12-08T09:02:21.596Z,67.80
2022-12-08T09:04:48.863Z,67.80
2022-12-08T09:07:16.081Z,67.60
2022-12-08T09:09:43.141Z,67.50
2022-12-08T09:12:10.601Z,67.40
2022-12-08T09:14:37.555Z,67.60
2022-12-08T09:17:05.318Z,67.40
2022-12-08T09:19:32.605Z,67.50
2022-12-08T09:21:59.504Z,67.30
2022-12-08T09:24:26.582Z,67.50
2022-12-08T09:26:53.480Z,67.50
2022-12-08T09:29:20.341Z,67.70
2022-12-08T09:31:47.348Z,67.60
2022-12-08T09:34:14.624Z,67.50
2022-12-08T09:36:41.663Z,67.60
2022-12-08T09:39:08.947Z,67.60
2022-12-08T09:41:50.232Z,67.50
2022-12-08T09:44:35.833Z,67.30
2022-12-08T09:47:13.392Z,67.00
2022-12-08T09:49:45.784Z,67.30
2022-12-08T09:52:24.328Z,67.40
2022-12-08T09:54:51.207Z,67.30
2022-12-08T09:57:22.510Z,67.10
2022-12-08T09:59:58.405Z,67.10
2022-12-08T10:02:29.074Z,67.10
2022-12-08T10:04:57.690Z,67.10
2022-12-08T10:07:47.762Z,67.10
2022-12-08T10:10:26.511Z,67.80
2022-12-08T10:13:14.570Z,67.30
2022-12-08T10:15:53.362Z,67.20
2022-12-08T10:18:29.271Z,67.20
2022-12-08T10:21:05.210Z,67.30
2022-12-08T10:23:39.492Z,67.40
2022-12-08T10:26:12.098Z,67.50
2022-12-08T10:28:44.813Z,67.50
2022-12-08T10:31:16.645Z,67.40
2022-12-08T10:33:44.480Z,67.40
2022-12-08T10:36:11.688Z,67.50
2022-12-08T10:38:40.342Z,67.30
2022-12-08T10:41:09.892Z,67.40
2022-12-08T10:43:49.444Z,67.30
2022-12-08T10:46:27.039Z,67.20
2022-12-08T10:49:13.352Z,67.10
2022-12-08T10:51:42.641Z,67.00
2022-12-08T10:54:32.326Z,67.30
2022-12-08T10:56:59.364Z,66.90
2022-12-08T10:59:26.584Z,67.00
2022-12-08T11:01:56.518Z,67.00
2022-12-08T11:04:36.306Z,67.00
2022-12-08T11:07:05.962Z,67.10
2022-12-08T11:09:48.664Z,66.80
2022-12-08T11:12:17.669Z,67.10
2022-12-08T11:14:44.386Z,66.90
2022-12-08T11:17:39.513Z,66.80
2022-12-08T11:20:09.805Z,66.70
2022-12-08T11:22:41.916Z,66.60
2022-12-08T11:25:10.351Z,66.30
2022-12-08T11:27:40.669Z,66.50
2022-12-08T11:30:19.451Z,66.50
2022-12-08T11:32:54.517Z,66.40
2022-12-08T11:35:32.616Z,66.60
2022-12-08T11:38:20.604Z,66.60
2022-12-08T11:40:55.746Z,66.60
2022-12-08T11:43:27.789Z,66.70
2022-12-08T11:46:00.039Z,66.50
2022-12-08T11:48:33.422Z,66.70
2022-12-08T11:51:29.764Z,66.60
2022-12-08T11:54:08.622Z,66.50
2022-12-08T11:56:41.485Z,66.60
2022-12-08T11:59:31.484Z,65.90
2022-12-08T12:02:00.866Z,65.90
2022-12-08T12:04:27.686Z,66.20
2022-12-08T12:07:26.407Z,66.00
2022-12-08T12:10:02.647Z,66.00
2022-12-08T12:12:57.234Z,65.70
2022-12-08T12:15:44.298Z,65.80
2022-12-08T12:18:27.379Z,65.60
2022-12-08T12:20:57.212Z,65.80
2022-12-08T12:23:42.912Z,65.60
2022-12-08T12:26:19.704Z,65.30
2022-12-08T12:28:52.289Z,65.50
2022-12-08T12:31:25.005Z,65.60
2022-12-08T12:33:55.149Z,65.20
2022-12-08T12:36:22.344Z,65.40
2022-12-08T12:39:09.122Z,65.10
2022-12-08T12:41:41.989Z,65.00
2022-12-08T12:44:14.695Z,65.10
2022-12-08T12:46:54.159Z,65.40
2022-12-08T12:49:39.275Z,65.30
2022-12-08T12:52:32.030Z,65.00
2022-12-08T12:54:58.857Z,64.60
2022-12-08T12:57:36.858Z,64.50
2022-12-08T13:00:03.652Z,64.30
2022-12-08T13:02:33.251Z,64.40
2022-12-08T13:05:18.744Z,64.60
2022-12-08T13:07:59.317Z,64.50
2022-12-08T13:10:37.176Z,64.40
2022-12-08T13:13:06.997Z,64.40
2022-12-08T13:15:37.505Z,64.30
2022-12-08T13:18:06.433Z,64.50
2022-12-08T13:20:42.477Z,64.30
2022-12-08T13:23:41.990Z,64.00
2022-12-08T13:26:17.747Z,64.20
2022-12-08T13:29:03.761Z,64.00
2022-12-08T13:31:53.437Z,63.50
2022-12-08T13:34:23.088Z,64.20
2022-12-08T13:36:59.545Z,64.10
2022-12-08T13:39:41.426Z,63.90
2022-12-08T13:42:17.159Z,64.00
2022-12-08T13:45:21.383Z,63.90
2022-12-08T13:48:21.663Z,64.00
2022-12-08T13:59:34.142Z,64.00
2022-12-08T14:02:29.976Z,63.60
2022-12-08T14:07:46.704Z,63.10
2022-12-08T14:10:24.622Z,63.30
2022-12-08T14:13:05.243Z,63.50
2022-12-08T14:15:38.329Z,63.80
2022-12-08T14:18:07.192Z,63.50
2022-12-08T14:20:58.066Z,63.60
2022-12-08T14:23:22.345Z,63.40
2022-12-08T14:25:49.467Z,63.20
2022-12-08T14:28:17.114Z,63.30
2022-12-08T14:30:44.147Z,63.20
2022-12-08T14:33:19.444Z,63.30
2022-12-08T14:35:51.480Z,63.50
2022-12-08T14:38:20.991Z,63.50
2022-12-08T14:41:09.109Z,63.60
2022-12-08T14:43:36.231Z,63.50
2022-12-08T14:46:20.741Z,63.40
2022-12-08T14:48:47.888Z,63.50
2022-12-08T14:51:23.591Z,63.60
2022-12-08T14:54:15.372Z,63.70
2022-12-08T14:56:54.265Z,63.80
2022-12-08T14:59:33.207Z,64.00
2022-12-08T15:02:25.289Z,64.30
2022-12-08T15:05:02.816Z,64.20
2022-12-08T15:07:38.334Z,64.30
2022-12-08T15:10:10.863Z,64.50
2022-12-08T15:12:38.923Z,64.70
2022-12-08T15:15:08.820Z,64.80
2022-12-08T15:17:42.348Z,64.80
2022-12-08T15:27:19.663Z,67.10
2022-12-08T15:29:48.348Z,69.80
2022-12-08T15:32:22.305Z,70.40
2022-12-08T15:34:50.004Z,68.80
2022-12-08T15:37:22.081Z,68.20
2022-12-08T15:39:49.802Z,67.90
2022-12-08T15:42:17.220Z,67.80
2022-12-08T15:44:44.569Z,67.60
2022-12-08T15:47:22.539Z,67.40
2022-12-08T15:49:51.257Z,67.40
2022-12-08T15:52:22.087Z,67.40
2022-12-08T15:54:49.305Z,67.20
2022-12-08T15:58:04.605Z,67.50
2022-12-08T16:00:52.412Z,67.20
2022-12-08T16:05:11.944Z,67.20
2022-12-08T16:09:42.849Z,67.20
2022-12-08T16:13:26.842Z,67.30
2022-12-08T16:15:50.045Z,67.40
2022-12-08T16:18:23.912Z,67.40
2022-12-08T16:23:43.535Z,67.50
2022-12-08T16:26:35.715Z,67.60
2022-12-08T16:29:05.382Z,67.50
2022-12-08T16:31:32.842Z,67.60
2022-12-08T16:33:59.699Z,67.60
2022-12-08T16:36:26.544Z,67.60
2022-12-08T16:38:53.303Z,67.60
2022-12-08T16:41:38.584Z,68.40
2022-12-08T16:44:06.410Z,67.70
2022-12-08T16:46:33.681Z,67.80
2022-12-08T16:49:00.669Z,67.70
2022-12-08T16:51:27.820Z,67.70
2022-12-08T16:53:58.534Z,67.60
2022-12-08T16:56:32.248Z,67.40
2022-12-08T16:59:00.435Z,67.30
2022-12-08T17:01:27.295Z,67.50
2022-12-08T17:06:40.984Z,67.40
2022-12-08T17:09:07.840Z,67.20
2022-12-08T17:11:42.637Z,67.10
2022-12-08T17:14:11.408Z,67.10
2022-12-08T17:16:38.568Z,67.10
2022-12-08T17:19:05.658Z,66.80
2022-12-08T17:21:32.557Z,66.80
2022-12-08T17:23:59.542Z,67.00
2022-12-08T17:26:26.347Z,66.90
2022-12-08T17:29:01.510Z,66.90
2022-12-08T17:31:31.122Z,67.00
2022-12-08T17:34:00.230Z,67.00
2022-12-08T17:36:27.053Z,67.00
2022-12-08T17:38:54.357Z,66.80
2022-12-08T17:41:21.143Z,66.70
2022-12-08T17:43:47.916Z,66.70
2022-12-08T17:46:19.480Z,66.80
2022-12-08T17:48:46.412Z,66.80
2022-12-08T17:51:13.287Z,66.80
2022-12-08T17:53:40.846Z,66.80
2022-12-08T17:56:15.663Z,66.70
2022-12-08T17:58:42.480Z,66.60
2022-12-08T18:01:10.566Z,66.40
2022-12-08T18:03:38.265Z,66.50
2022-12-08T18:06:10.470Z,66.40
2022-12-08T18:08:38.287Z,66.40
2022-12-08T18:11:05.737Z,66.30
2022-12-08T18:13:32.612Z,66.30
2022-12-08T18:15:59.477Z,66.20
2022-12-08T18:18:26.316Z,66.10
2022-12-08T18:20:53.125Z,66.10
2022-12-08T18:23:19.888Z,66.00
2022-12-08T18:25:47.190Z,66.20
2022-12-08T18:28:13.960Z,66.20
2022-12-08T18:30:40.939Z,66.30
2022-12-08T18:33:08.347Z,66.30
2022-12-08T18:35:35.366Z,66.10
2022-12-08T18:38:02.164Z,66.10
2022-12-08T18:40:29.176Z,66.10
2022-12-08T18:42:56.354Z,66.10
2022-12-08T18:45:23.322Z,66.00
2022-12-08T18:47:51.590Z,65.80
2022-12-08T18:50:18.926Z,66.00
2022-12-08T18:52:46.487Z,66.00
2022-12-08T18:55:14.441Z,65.80
2022-12-08T18:57:45.398Z,65.90
2022-12-08T19:00:15.336Z,65.90
2022-12-08T19:02:42.481Z,66.00
2022-12-08T19:05:11.509Z,65.90
2022-12-08T19:07:38.882Z,65.90
2022-12-08T19:10:06.909Z,65.70
2022-12-08T19:12:34.018Z,65.80
2022-12-08T19:15:01.024Z,65.70
2022-12-08T19:17:29.657Z,65.90
2022-12-08T19:19:56.596Z,65.80
2022-12-08T19:22:23.424Z,65.60
2022-12-08T19:24:50.196Z,65.50
2022-12-08T19:27:17.058Z,65.60
2022-12-08T19:29:44.032Z,65.60
2022-12-08T19:32:10.944Z,65.60
2022-12-08T19:34:37.768Z,65.60
2022-12-08T19:37:04.712Z,65.60
2022-12-08T19:39:50.079Z,65.50
2022-12-08T19:42:38.170Z,65.50
2022-12-08T19:45:12.278Z,65.60
2022-12-08T19:47:39.544Z,65.70
2022-12-08T19:50:26.944Z,65.40
2022-12-08T19:52:54.284Z,65.50
2022-12-08T19:55:21.191Z,65.60
2022-12-08T19:57:47.979Z,65.70
2022-12-08T20:00:15.613Z,65.70
2022-12-08T20:02:42.576Z,65.80
2022-12-08T20:05:14.341Z,65.60
2022-12-08T20:07:41.647Z,65.60
2022-12-08T20:10:30.631Z,65.60
2022-12-08T20:13:17.952Z,65.70
2022-12-08T20:15:45.590Z,65.60
2022-12-08T20:18:14.052Z,65.60
2022-12-08T20:20:42.468Z,65.40
2022-12-08T20:23:09.652Z,65.60
2022-12-08T20:25:41.269Z,65.40
2022-12-08T20:28:09.823Z,65.60
2022-12-08T20:30:41.711Z,65.60
2022-12-08T20:33:10.050Z,65.70
2022-12-08T20:35:36.919Z,65.70
2022-12-08T20:38:03.875Z,65.60
2022-12-08T20:40:30.798Z,65.40
2022-12-08T20:42:57.624Z,65.40
2022-12-08T20:45:24.489Z,65.50
2022-12-08T20:47:51.406Z,65.40
2022-12-08T20:50:18.417Z,65.40
2022-12-08T20:52:45.441Z,65.50
2022-12-08T20:55:12.305Z,65.40
2022-12-08T20:57:39.227Z,65.40
2022-12-08T21:00:07.503Z,65.30
2022-12-08T21:02:34.857Z,65.30
2022-12-08T21:05:01.888Z,65.10
2022-12-08T21:07:28.945Z,65.10
2022-12-08T21:09:55.802Z,65.10
2022-12-08T21:12:22.784Z,65.10
2022-12-08T21:14:49.680Z,65.10
2022-12-08T21:17:16.588Z,65.10
2022-12-08T21:19:43.668Z,65.10
2022-12-08T21:22:10.756Z,65.10
2022-12-08T21:24:38.134Z,65.00
2022-12-08T21:27:05.176Z,65.10
2022-12-08T21:29:32.181Z,64.90
2022-12-08T21:32:00.503Z,64.90
2022-12-08T21:34:34.462Z,65.00
2022-12-08T21:37:02.098Z,65.10
2022-12-08T21:39:29.168Z,65.10
2022-12-08T21:42:14.660Z,65.10
2022-12-08T21:44:41.724Z,65.00
2022-12-08T21:47:08.565Z,65.10
2022-12-08T21:49:35.653Z,65.10
2022-12-08T21:52:02.680Z,65.20
2022-12-08T21:54:29.879Z,65.00
2022-12-08T21:56:56.820Z,65.10
2022-12-08T21:59:23.676Z,65.10
2022-12-08T22:01:50.935Z,65.10
2022-12-08T22:04:19.280Z,65.10
2022-12-08T22:06:46.336Z,65.10
2022-12-08T22:09:15.207Z,65.00
2022-12-08T22:11:43.568Z,65.20
2022-12-08T22:14:14.430Z,65.30
2022-12-08T22:16:42.441Z,65.10
2022-12-08T22:19:09.811Z,65.90
2022-12-08T22:21:38.512Z,65.20
2022-12-08T22:24:06.189Z,66.20
2022-12-08T22:26:33.326Z,66.50
2022-12-08T22:29:00.550Z,66.40
2022-12-08T22:31:28.124Z,66.30
2022-12-08T22:33:55.797Z,65.40
2022-12-08T22:36:27.094Z,65.20
2022-12-08T22:38:54.738Z,65.30
2022-12-08T22:41:22.762Z,65.10
2022-12-08T22:43:50.411Z,65.20
2022-12-08T22:46:25.697Z,65.20
2022-12-08T22:48:54.175Z,65.20
2022-12-08T22:51:21.477Z,65.10
2022-12-08T22:53:48.492Z,65.10
2022-12-08T22:56:16.615Z,65.20
2022-12-08T22:58:44.480Z,65.20
2022-12-08T23:01:26.127Z,65.20
2022-12-08T23:03:53.508Z,65.10
2022-12-08T23:06:20.593Z,65.10
2022-12-08T23:08:47.716Z,65.10
2022-12-08T23:11:14.621Z,65.10
2022-12-08T23:13:41.858Z,65.10
2022-12-08T23:16:10.276Z,65.10
2022-12-08T23:18:40.402Z,65.20
2022-12-08T23:21:10.103Z,65.10
2022-12-08T23:23:37.722Z,65.10
2022-12-08T23:26:05.227Z,65.30
2022-12-08T23:28:32.440Z,65.30
2022-12-08T23:30:59.380Z,65.30
2022-12-08T23:33:26.133Z,65.30
2022-12-08T23:35:57.652Z,65.20
2022-12-08T23:38:25.301Z,65.30
2022-12-08T23:40:52.752Z,65.30
2022-12-08T23:43:19.648Z,65.50
2022-12-08T23:45:47.849Z,65.40
2022-12-08T23:48:14.669Z,66.10
2022-12-08T23:50:41.525Z,65.30
2022-12-08T23:53:08.516Z,65.30
2022-12-08T23:55:35.375Z,65.00
2022-12-08T23:58:02.140Z,65.10
